createdAt,value
2019-04-22T00:00:08.624Z,6.30
2019-04-22T00:00:49.379Z,6.20
2019-04-22T00:01:28.637Z,6.30
2019-04-22T00:02:05.985Z,6.40
2019-04-22T00:02:47.292Z,6.80
2019-04-22T00:03:20.510Z,6.42
2019-04-22T00:04:01.329Z,6.50
2019-04-22T00:04:49.895Z,6.05
2019-04-22T00:05:19.229Z,6.80
2019-04-22T00:06:12.962Z,6.65
2019-04-22T00:06:50.271Z,6.20
2019-04-22T00:07:28.919Z,5.80
2019-04-22T00:08:13.137Z,5.92
2019-04-22T00:08:46.391Z,7.00
2019-04-22T00:09:26.755Z,6.67
2019-04-22T00:10:09.651Z,6.33
2019-04-22T00:10:42.012Z,6.37
2019-04-22T00:11:19.601Z,6.10
2019-04-22T00:12:00.417Z,6.40
2019-04-22T00:12:37.479Z,6.05
2019-04-22T00:13:20.041Z,6.35
2019-04-22T00:14:01.277Z,6.37
2019-04-22T00:14:23.034Z,6.60
2019-04-22T00:15:02.247Z,6.60
2019-04-22T00:15:36.998Z,6.30
2019-04-22T00:16:26.442Z,6.42
2019-04-22T00:17:00.752Z,6.58
2019-04-22T00:18:22.296Z,6.55
2019-04-22T00:20:08.809Z,6.97
2019-04-22T00:20:43.925Z,6.30
2019-04-22T00:21:27.464Z,6.72
2019-04-22T00:22:03.352Z,6.05
2019-04-22T00:22:40.170Z,6.62
2019-04-22T00:23:13.248Z,6.45
2019-04-22T00:23:53.100Z,6.00
2019-04-22T00:24:33.380Z,6.25
2019-04-22T00:25:18.042Z,6.85
2019-04-22T00:25:56.104Z,6.00
2019-04-22T00:26:29.081Z,6.22
2019-04-22T00:27:05.199Z,6.72
2019-04-22T00:28:21.599Z,6.12
2019-04-22T00:28:58.211Z,6.55
2019-04-22T00:29:49.856Z,6.78
2019-04-22T00:30:19.360Z,5.95
2019-04-22T00:30:58.217Z,6.58
2019-04-22T00:31:42.410Z,6.03
2019-04-22T00:32:27.198Z,6.47
2019-04-22T00:33:21.692Z,6.78
2019-04-22T00:33:57.789Z,5.58
2019-04-22T00:34:51.308Z,7.28
2019-04-22T00:35:25.607Z,6.83
2019-04-22T00:36:01.124Z,6.58
2019-04-22T00:36:42.007Z,6.83
2019-04-22T00:37:25.241Z,6.65
2019-04-22T00:38:03.751Z,6.80
2019-04-22T00:38:38.794Z,6.33
2019-04-22T00:39:16.733Z,6.90
2019-04-22T00:39:51.834Z,5.92
2019-04-22T00:40:36.646Z,6.03
2019-04-22T00:41:17.120Z,6.00
2019-04-22T00:41:52.155Z,6.17
2019-04-22T00:42:29.457Z,6.35
2019-04-22T00:42:58.312Z,6.25
2019-04-22T00:43:39.297Z,6.78
2019-04-22T00:44:22.237Z,6.72
2019-04-22T00:45:00.471Z,6.40
2019-04-22T00:45:33.378Z,6.53
2019-04-22T00:46:10.948Z,6.50
2019-04-22T00:46:55.671Z,7.08
2019-04-22T00:47:27.955Z,5.97
2019-04-22T00:48:10.976Z,6.50
2019-04-22T00:48:43.018Z,6.67
2019-04-22T00:49:59.950Z,6.35
2019-04-22T00:50:44.327Z,6.83
2019-04-22T00:51:17.911Z,6.42
2019-04-22T00:52:28.514Z,6.00
2019-04-22T00:53:09.296Z,6.97
2019-04-22T00:53:41.588Z,6.20
2019-04-22T00:54:22.601Z,6.30
2019-04-22T00:55:06.099Z,6.45
2019-04-22T00:55:40.486Z,6.80
2019-04-22T00:56:52.829Z,6.40
2019-04-22T00:57:30.821Z,5.92
2019-04-22T00:58:10.823Z,6.15
2019-04-22T00:59:23.861Z,6.15
2019-04-22T01:00:01.474Z,5.75
2019-04-22T01:00:39.272Z,6.58
2019-04-22T01:01:57.544Z,6.45
2019-04-22T01:02:34.645Z,6.03
2019-04-22T01:03:13.401Z,6.60
2019-04-22T01:04:02.115Z,6.28
2019-04-22T01:05:09.804Z,6.33
2019-04-22T01:05:43.789Z,6.40
2019-04-22T01:06:20.504Z,7.15
2019-04-22T01:07:00.770Z,6.22
2019-04-22T01:07:30.745Z,6.03
2019-04-22T01:08:12.907Z,6.40
2019-04-22T01:09:33.006Z,4.92
2019-04-22T01:10:12.694Z,6.80
2019-04-22T01:10:49.395Z,6.15
2019-04-22T01:11:30.714Z,6.25
2019-04-22T01:12:01.455Z,6.72
2019-04-22T01:12:39.549Z,7.28
2019-04-22T01:13:21.365Z,6.28
2019-04-22T01:13:50.078Z,6.55
2019-04-22T01:14:28.046Z,6.15
2019-04-22T01:15:07.290Z,6.90
2019-04-22T01:15:47.490Z,6.47
2019-04-22T01:16:22.961Z,6.45
2019-04-22T01:17:00.025Z,6.55
2019-04-22T01:17:43.502Z,6.47
2019-04-22T01:18:15.654Z,6.70
2019-04-22T01:18:53.833Z,6.90
2019-04-22T01:19:39.253Z,6.37
2019-04-22T01:20:24.492Z,6.92
2019-04-22T01:21:05.853Z,6.90
2019-04-22T01:21:30.560Z,6.95
2019-04-22T01:21:58.205Z,7.05
2019-04-22T01:22:38.161Z,6.58
2019-04-22T01:23:20.595Z,6.90
2019-04-22T01:23:52.274Z,7.15
2019-04-22T01:24:37.029Z,6.22
2019-04-22T01:25:12.939Z,6.83
2019-04-22T01:25:46.321Z,6.75
2019-04-22T01:26:25.476Z,6.60
2019-04-22T01:27:03.674Z,6.60
2019-04-22T01:27:39.222Z,7.37
2019-04-22T01:28:14.117Z,6.47
2019-04-22T01:28:52.520Z,6.58
2019-04-22T01:29:30.871Z,6.60
2019-04-22T01:30:08.462Z,7.12
2019-04-22T01:30:40.624Z,6.45
2019-04-22T01:31:17.179Z,6.80
2019-04-22T01:31:49.237Z,6.92
2019-04-22T01:32:34.430Z,6.78
2019-04-22T01:33:12.778Z,7.55
2019-04-22T01:33:49.763Z,6.87
2019-04-22T01:34:33.624Z,7.50
2019-04-22T01:35:08.525Z,6.72
2019-04-22T01:35:56.915Z,6.08
2019-04-22T01:36:30.145Z,7.08
2019-04-22T01:37:07.657Z,7.00
2019-04-22T01:37:45.895Z,6.60
2019-04-22T01:38:26.268Z,7.65
2019-04-22T01:39:02.305Z,7.10
2019-04-22T01:39:50.051Z,7.00
2019-04-22T01:40:28.142Z,7.53
2019-04-22T01:41:07.071Z,7.50
2019-04-22T01:41:48.814Z,7.28
2019-04-22T01:42:35.821Z,7.17
2019-04-22T01:43:40.989Z,7.67
2019-04-22T01:44:31.362Z,6.95
2019-04-22T01:44:45.352Z,6.62
2019-04-22T01:45:25.906Z,6.53
2019-04-22T01:46:02.511Z,6.95
2019-04-22T01:46:45.070Z,6.87
2019-04-22T01:47:22.960Z,7.17
2019-04-22T01:48:00.839Z,7.22
2019-04-22T01:48:39.554Z,6.35
2019-04-22T01:49:19.227Z,6.97
2019-04-22T01:49:46.078Z,6.87
2019-04-22T01:50:28.670Z,6.72
2019-04-22T01:51:00.717Z,6.80
2019-04-22T01:51:51.854Z,7.22
2019-04-22T01:53:06.490Z,7.30
2019-04-22T01:53:33.444Z,6.87
2019-04-22T01:54:22.238Z,6.70
2019-04-22T01:55:10.483Z,6.85
2019-04-22T01:55:32.400Z,6.87
2019-04-22T01:56:06.015Z,7.55
2019-04-22T01:56:48.401Z,6.62
2019-04-22T01:57:23.971Z,7.28
2019-04-22T01:57:59.888Z,7.05
2019-04-22T01:58:36.148Z,6.85
2019-04-22T01:59:11.028Z,6.62
2019-04-22T01:59:48.762Z,7.47
2019-04-22T02:00:35.687Z,7.30
2019-04-22T02:01:13.545Z,7.90
2019-04-22T02:01:50.004Z,7.12
2019-04-22T02:02:31.060Z,7.30
2019-04-22T02:03:04.493Z,6.97
2019-04-22T02:03:46.701Z,7.30
2019-04-22T02:04:26.943Z,7.47
2019-04-22T02:04:59.429Z,7.67
2019-04-22T02:05:50.542Z,7.47
2019-04-22T02:06:17.124Z,7.67
2019-04-22T02:06:48.483Z,7.35
2019-04-22T02:07:32.104Z,7.95
2019-04-22T02:08:09.657Z,6.95
2019-04-22T02:08:53.234Z,7.67
2019-04-22T02:09:24.167Z,7.85
2019-04-22T02:09:56.108Z,8.20
2019-04-22T02:10:39.257Z,7.92
2019-04-22T02:11:14.633Z,7.72
2019-04-22T02:11:53.397Z,7.60
2019-04-22T02:12:33.731Z,6.95
2019-04-22T02:13:10.085Z,7.22
2019-04-22T02:13:52.709Z,7.87
2019-04-22T02:14:27.206Z,7.03
2019-04-22T02:14:57.266Z,7.95
2019-04-22T02:15:41.886Z,7.80
2019-04-22T02:16:17.942Z,6.65
2019-04-22T02:16:55.774Z,7.12
2019-04-22T02:18:18.295Z,7.00
2019-04-22T02:18:53.116Z,7.28
2019-04-22T02:19:30.689Z,6.95
2019-04-22T02:20:05.357Z,7.53
2019-04-22T02:20:44.300Z,7.55
2019-04-22T02:21:17.022Z,7.72
2019-04-22T02:21:56.547Z,7.00
2019-04-22T02:22:50.862Z,7.42
2019-04-22T02:24:20.024Z,6.83
2019-04-22T02:24:46.828Z,7.37
2019-04-22T02:25:21.193Z,7.67
2019-04-22T02:26:41.722Z,7.03
2019-04-22T02:27:28.691Z,6.92
2019-04-22T02:27:54.712Z,6.85
2019-04-22T02:29:17.070Z,7.62
2019-04-22T02:29:52.311Z,7.28
2019-04-22T02:30:42.070Z,7.25
2019-04-22T02:31:51.074Z,7.03
2019-04-22T02:32:52.022Z,7.75
2019-04-22T02:33:25.166Z,7.35
2019-04-22T02:34:00.793Z,7.00
2019-04-22T02:34:21.771Z,7.62
2019-04-22T02:35:55.110Z,7.12
2019-04-22T02:36:51.374Z,7.67
2019-04-22T02:38:31.406Z,7.30
2019-04-22T02:39:20.217Z,7.40
2019-04-22T02:40:03.823Z,7.00
2019-04-22T02:40:56.290Z,7.97
2019-04-22T02:41:51.029Z,7.55
2019-04-22T02:42:23.480Z,7.30
2019-04-22T02:43:11.898Z,7.42
2019-04-22T02:44:31.375Z,7.92
2019-04-22T02:45:52.590Z,7.53
2019-04-22T02:47:27.049Z,7.33
2019-04-22T02:48:26.635Z,7.05
2019-04-22T02:49:24.494Z,7.95
2019-04-22T02:50:43.907Z,8.38
2019-04-22T02:51:22.363Z,7.87
2019-04-22T02:51:52.485Z,7.22
2019-04-22T02:52:41.077Z,7.37
2019-04-22T02:53:17.550Z,7.67
2019-04-22T02:56:27.168Z,8.18
2019-04-22T02:56:53.037Z,7.28
2019-04-22T02:58:12.602Z,7.55
2019-04-22T03:00:44.363Z,7.87
2019-04-22T03:01:39.506Z,7.85
2019-04-22T03:02:58.906Z,8.28
2019-04-22T03:03:33.181Z,8.60
2019-04-22T03:05:08.852Z,7.58
2019-04-22T03:05:59.246Z,7.78
2019-04-22T03:06:49.548Z,7.65
2019-04-22T03:07:48.989Z,8.50
2019-04-22T03:09:18.588Z,7.83
2019-04-22T03:10:23.908Z,7.85
2019-04-22T03:10:56.554Z,8.28
2019-04-22T03:11:25.305Z,7.53
2019-04-22T03:12:11.913Z,7.40
2019-04-22T03:12:33.280Z,7.30
2019-04-22T03:13:29.268Z,7.40
2019-04-22T03:14:01.442Z,7.67
2019-04-22T03:14:34.070Z,7.92
2019-04-22T03:15:07.937Z,7.72
2019-04-22T03:16:01.337Z,7.62
2019-04-22T03:17:11.005Z,7.08
2019-04-22T03:17:43.767Z,7.80
2019-04-22T03:18:35.992Z,8.38
2019-04-22T03:19:02.865Z,8.38
2019-04-22T03:20:08.491Z,7.67
2019-04-22T03:20:58.143Z,7.85
2019-04-22T03:21:28.026Z,7.10
2019-04-22T03:22:12.475Z,7.83
2019-04-22T03:22:47.603Z,7.12
2019-04-22T03:26:35.066Z,7.75
2019-04-22T03:27:07.531Z,7.17
2019-04-22T03:27:40.200Z,7.00
2019-04-22T03:28:33.028Z,7.33
2019-04-22T03:29:11.168Z,7.17
2019-04-22T03:30:39.446Z,7.65
2019-04-22T03:31:58.978Z,7.70
2019-04-22T03:32:35.995Z,7.72
2019-04-22T03:32:52.501Z,8.40
2019-04-22T03:33:36.205Z,7.40
2019-04-22T03:37:04.401Z,7.75
2019-04-22T03:38:31.211Z,7.62
2019-04-22T03:39:20.326Z,7.40
2019-04-22T03:40:28.184Z,8.53
2019-04-22T03:41:14.344Z,7.00
2019-04-22T03:42:05.721Z,8.00
2019-04-22T03:42:07.767Z,8.58
2019-04-22T03:43:24.007Z,7.50
2019-04-22T03:44:38.404Z,8.10
2019-04-22T03:45:28.423Z,7.35
2019-04-22T03:46:03.894Z,7.47
2019-04-22T03:46:41.833Z,8.25
2019-04-22T03:47:53.732Z,6.90
2019-04-22T03:48:27.072Z,6.72
2019-04-22T03:49:32.864Z,7.75
2019-04-22T03:49:52.110Z,7.12
2019-04-22T03:51:01.956Z,7.42
2019-04-22T03:53:05.724Z,7.83
2019-04-22T03:53:33.566Z,6.53
2019-04-22T03:54:21.297Z,7.12
2019-04-22T03:54:52.112Z,7.00
2019-04-22T03:55:23.149Z,6.85
2019-04-22T03:56:02.397Z,7.28
2019-04-22T03:58:37.310Z,7.40
2019-04-22T04:00:08.459Z,7.10
2019-04-22T04:01:30.484Z,6.65
2019-04-22T04:04:50.277Z,7.25
2019-04-22T04:05:41.630Z,7.00
2019-04-22T04:06:02.285Z,7.12
2019-04-22T04:07:01.767Z,6.83
2019-04-22T04:07:32.443Z,6.78
2019-04-22T04:08:12.646Z,6.70
2019-04-22T04:08:38.930Z,7.22
2019-04-22T04:10:02.233Z,6.05
2019-04-22T04:11:18.920Z,7.37
2019-04-22T04:12:07.899Z,6.53
2019-04-22T04:13:19.681Z,6.75
2019-04-22T04:13:52.126Z,7.60
2019-04-22T04:15:10.851Z,6.85
2019-04-22T04:16:21.705Z,6.70
2019-04-22T04:17:09.397Z,7.22
2019-04-22T04:17:36.911Z,7.30
2019-04-22T04:18:29.546Z,6.78
2019-04-22T04:18:57.840Z,6.97
2019-04-22T04:19:34.451Z,6.92
2019-04-22T04:20:10.767Z,7.45
2019-04-22T04:20:44.742Z,7.62
2019-04-22T04:21:57.657Z,8.38
2019-04-22T04:24:24.196Z,7.28
2019-04-22T04:25:48.183Z,7.78
2019-04-22T04:26:41.063Z,6.97
2019-04-22T04:27:25.224Z,7.50
2019-04-22T04:28:03.571Z,6.50
2019-04-22T04:29:07.503Z,7.08
2019-04-22T04:29:51.380Z,7.00
2019-04-22T04:30:25.221Z,7.42
2019-04-22T04:31:33.616Z,7.35
2019-04-22T04:32:25.201Z,7.08
2019-04-22T04:33:24.949Z,6.97
2019-04-22T04:33:54.239Z,6.92
2019-04-22T04:34:56.368Z,7.33
2019-04-22T04:36:28.656Z,6.40
2019-04-22T04:37:25.532Z,7.25
2019-04-22T04:38:33.381Z,7.40
2019-04-22T04:39:00.577Z,6.42
2019-04-22T04:39:43.736Z,6.65
2019-04-22T04:40:55.595Z,6.75
2019-04-22T04:41:34.365Z,6.28
2019-04-22T04:42:18.768Z,6.53
2019-04-22T04:42:46.217Z,6.70
2019-04-22T04:43:32.832Z,6.55
2019-04-22T04:44:11.198Z,6.85
2019-04-22T04:45:41.211Z,6.75
2019-04-22T04:46:02.841Z,6.72
2019-04-22T04:46:47.486Z,6.62
2019-04-22T04:47:13.039Z,6.60
2019-04-22T04:48:32.703Z,6.80
2019-04-22T04:49:14.035Z,6.58
2019-04-22T04:49:45.649Z,6.22
2019-04-22T04:50:18.296Z,6.42
2019-04-22T04:51:07.221Z,6.55
2019-04-22T04:52:31.070Z,7.10
2019-04-22T04:54:15.167Z,6.78
2019-04-22T04:54:48.429Z,6.62
2019-04-22T04:55:24.424Z,6.50
2019-04-22T04:56:08.351Z,6.55
2019-04-22T04:56:42.463Z,7.05
2019-04-22T04:57:16.440Z,7.00
2019-04-22T04:58:22.080Z,6.78
2019-04-22T04:58:47.777Z,7.17
2019-04-22T05:00:11.434Z,6.72
2019-04-22T05:01:08.014Z,6.45
2019-04-22T05:01:44.576Z,6.58
2019-04-22T05:05:06.360Z,6.22
2019-04-22T05:05:28.833Z,7.10
2019-04-22T05:06:09.480Z,6.95
2019-04-22T05:06:51.758Z,6.12
2019-04-22T05:07:24.397Z,5.83
2019-04-22T05:08:19.335Z,6.42
2019-04-22T05:09:54.256Z,6.50
2019-04-22T05:10:41.137Z,6.92
2019-04-22T05:11:10.976Z,6.70
2019-04-22T05:11:52.111Z,6.72
2019-04-22T05:14:55.109Z,7.80
2019-04-22T05:15:29.747Z,8.10
2019-04-22T05:16:49.443Z,6.60
2019-04-22T05:17:32.216Z,7.53
2019-04-22T05:18:12.643Z,7.33
2019-04-22T05:18:44.824Z,9.70
2019-04-22T05:19:20.926Z,8.38
2019-04-22T05:19:56.710Z,7.50
2019-04-22T05:20:42.954Z,8.15
2019-04-22T05:21:13.644Z,8.00
2019-04-22T05:21:53.368Z,7.22
2019-04-22T05:22:28.554Z,7.12
2019-04-22T05:22:59.463Z,6.55
2019-04-22T05:23:45.045Z,6.65
2019-04-22T05:24:25.701Z,6.00
2019-04-22T05:24:59.762Z,18.57
2019-04-22T05:25:36.837Z,8.43
2019-04-22T05:26:11.038Z,7.05
2019-04-22T05:26:57.130Z,6.83
2019-04-22T05:28:08.742Z,13.55
2019-04-22T05:28:45.000Z,6.78
2019-04-22T05:29:23.472Z,6.42
2019-04-22T05:30:32.392Z,5.37
2019-04-22T05:31:15.785Z,8.65
2019-04-22T05:31:55.332Z,5.60
2019-04-22T05:32:30.692Z,5.80
2019-04-22T05:33:01.873Z,4.85
2019-04-22T05:33:40.964Z,5.28
2019-04-22T05:34:26.417Z,5.33
2019-04-22T05:35:01.875Z,5.33
2019-04-22T05:35:49.003Z,5.05
2019-04-22T05:36:12.721Z,4.60
2019-04-22T05:36:53.960Z,5.15
2019-04-22T05:37:33.818Z,5.50
2019-04-22T05:38:13.353Z,5.17
2019-04-22T05:38:53.646Z,5.25
2019-04-22T05:39:22.210Z,5.85
2019-04-22T05:40:10.322Z,5.25
2019-04-22T05:41:46.335Z,5.55
2019-04-22T05:42:21.763Z,4.70
2019-04-22T05:42:56.455Z,5.15
2019-04-22T05:43:34.265Z,4.72
2019-04-22T05:44:50.010Z,4.90
2019-04-22T05:45:41.291Z,5.33
2019-04-22T05:46:04.173Z,5.30
2019-04-22T05:46:45.975Z,4.70
2019-04-22T05:47:23.751Z,4.62
2019-04-22T05:47:56.244Z,5.50
2019-04-22T05:48:39.736Z,4.83
2019-04-22T05:49:29.954Z,5.42
2019-04-22T05:49:48.591Z,4.67
2019-04-22T05:50:26.943Z,5.42
2019-04-22T05:51:10.098Z,5.47
2019-04-22T05:51:49.406Z,6.20
2019-04-22T05:52:21.295Z,5.33
2019-04-22T05:53:40.514Z,4.70
2019-04-22T05:54:55.035Z,5.30
2019-04-22T05:55:36.338Z,5.90
2019-04-22T05:56:22.399Z,5.58
2019-04-22T05:57:03.880Z,5.80
2019-04-22T05:57:23.974Z,5.30
2019-04-22T05:58:06.023Z,4.83
2019-04-22T05:58:45.274Z,5.35
2019-04-22T05:59:19.036Z,5.40
2019-04-22T05:59:59.520Z,5.20
2019-04-22T06:02:43.529Z,5.20
2019-04-22T06:03:04.215Z,5.10
2019-04-22T06:03:47.888Z,4.22
2019-04-22T06:04:39.940Z,4.40
2019-04-22T06:05:01.807Z,4.58
2019-04-22T06:05:35.752Z,4.40
2019-04-22T06:06:15.170Z,5.78
2019-04-22T06:06:46.762Z,9.85
2019-04-22T06:07:29.343Z,5.67
2019-04-22T06:08:04.193Z,7.80
2019-04-22T06:08:45.576Z,7.10
2019-04-22T06:09:24.547Z,6.17
2019-04-22T06:10:06.703Z,6.22
2019-04-22T06:10:52.065Z,4.75
2019-04-22T06:11:22.943Z,4.85
2019-04-22T06:11:44.588Z,4.70
2019-04-22T06:12:26.366Z,5.03
2019-04-22T06:13:06.603Z,4.78
2019-04-22T06:13:38.478Z,5.03
2019-04-22T06:14:20.387Z,4.37
2019-04-22T06:15:05.039Z,4.28
2019-04-22T06:15:53.110Z,3.90
2019-04-22T06:16:18.229Z,3.90
2019-04-22T06:16:59.172Z,3.90
2019-04-22T06:17:37.952Z,4.30
2019-04-22T06:18:47.280Z,4.15
2019-04-22T06:19:27.343Z,3.85
2019-04-22T06:20:03.031Z,3.95
2019-04-22T06:20:50.056Z,4.47
2019-04-22T06:21:38.792Z,4.08
2019-04-22T06:21:57.876Z,4.80
2019-04-22T06:22:48.670Z,4.12
2019-04-22T06:23:19.026Z,5.15
2019-04-22T06:23:54.292Z,5.08
2019-04-22T06:24:27.905Z,4.55
2019-04-22T06:25:17.061Z,5.22
2019-04-22T06:25:58.947Z,4.60
2019-04-22T06:26:35.890Z,5.25
2019-04-22T06:27:10.251Z,4.12
2019-04-22T06:27:42.892Z,3.87
2019-04-22T06:28:22.010Z,3.85
2019-04-22T06:28:54.816Z,3.87
2019-04-22T06:29:41.247Z,4.15
2019-04-22T06:30:12.619Z,3.70
2019-04-22T06:30:50.348Z,3.25
2019-04-22T06:31:29.642Z,3.10
2019-04-22T06:32:22.997Z,3.22
2019-04-22T06:33:20.780Z,3.85
2019-04-22T06:34:06.022Z,4.03
2019-04-22T06:34:38.554Z,3.67
2019-04-22T06:35:16.601Z,3.98
2019-04-22T06:35:54.573Z,3.60
2019-04-22T06:36:30.853Z,3.75
2019-04-22T06:37:07.623Z,3.83
2019-04-22T06:37:43.290Z,4.92
2019-04-22T06:38:56.651Z,4.72
2019-04-22T06:39:34.459Z,5.42
2019-04-22T06:40:16.424Z,6.28
2019-04-22T06:40:58.424Z,6.25
2019-04-22T06:41:31.692Z,4.95
2019-04-22T06:42:11.512Z,5.70
2019-04-22T06:42:42.490Z,4.20
2019-04-22T06:43:21.717Z,3.98
2019-04-22T06:44:07.665Z,3.98
2019-04-22T06:44:36.570Z,3.67
2019-04-22T06:45:18.993Z,3.42
2019-04-22T06:45:45.044Z,3.80
2019-04-22T06:47:39.834Z,3.60
2019-04-22T06:48:04.477Z,4.00
2019-04-22T06:48:28.459Z,3.37
2019-04-22T06:49:03.026Z,4.62
2019-04-22T06:49:42.381Z,3.92
2019-04-22T06:50:32.779Z,4.25
2019-04-22T06:50:56.810Z,3.70
2019-04-22T06:51:40.234Z,3.70
2019-04-22T06:52:17.997Z,3.95
2019-04-22T06:52:51.974Z,3.87
2019-04-22T06:53:33.157Z,4.00
2019-04-22T06:54:12.393Z,3.40
2019-04-22T06:54:49.023Z,3.47
2019-04-22T06:55:22.396Z,3.52
2019-04-22T06:56:00.456Z,3.60
2019-04-22T06:56:35.249Z,3.67
2019-04-22T06:57:11.565Z,4.47
2019-04-22T06:57:51.177Z,5.60
2019-04-22T06:58:28.333Z,6.78
2019-04-22T06:59:14.755Z,6.37
2019-04-22T06:59:52.068Z,6.00
2019-04-22T07:01:15.767Z,8.10
2019-04-22T07:01:42.725Z,7.42
2019-04-22T07:02:23.841Z,7.05
2019-04-22T07:03:26.929Z,6.58
2019-04-22T07:03:42.755Z,7.37
2019-04-22T07:04:14.459Z,7.85
2019-04-22T07:04:56.814Z,8.00
2019-04-22T07:05:32.776Z,6.35
2019-04-22T07:06:15.131Z,5.12
2019-04-22T07:06:47.888Z,5.20
2019-04-22T07:07:40.266Z,5.03
2019-04-22T07:08:05.541Z,4.87
2019-04-22T07:09:31.538Z,5.10
2019-04-22T07:09:56.979Z,5.05
2019-04-22T07:10:45.330Z,5.15
2019-04-22T07:11:07.923Z,5.87
2019-04-22T07:11:48.302Z,5.95
2019-04-22T07:12:31.989Z,6.47
2019-04-22T07:13:13.294Z,5.78
2019-04-22T07:13:51.737Z,4.30
2019-04-22T07:14:18.439Z,4.10
2019-04-22T07:15:02.967Z,3.60
2019-04-22T07:15:46.371Z,4.00
2019-04-22T07:16:20.810Z,3.92
2019-04-22T07:16:54.288Z,4.40
2019-04-22T07:17:39.315Z,4.15
2019-04-22T07:18:14.746Z,5.33
2019-04-22T07:19:05.952Z,3.80
2019-04-22T07:19:40.866Z,3.20
2019-04-22T07:19:58.393Z,3.72
2019-04-22T07:21:14.385Z,3.60
2019-04-22T07:21:57.552Z,3.95
2019-04-22T07:22:45.381Z,3.87
2019-04-22T07:23:15.505Z,3.60
2019-04-22T07:23:51.397Z,3.45
2019-04-22T07:24:43.829Z,6.03
2019-04-22T07:25:06.679Z,6.12
2019-04-22T07:25:41.157Z,5.37
2019-04-22T07:26:13.978Z,3.80
2019-04-22T07:27:00.592Z,3.37
2019-04-22T07:27:34.219Z,3.92
2019-04-22T07:28:11.122Z,3.77
2019-04-22T07:28:49.045Z,3.00
2019-04-22T07:29:26.621Z,3.47
2019-04-22T07:30:09.229Z,3.40
2019-04-22T07:31:01.874Z,3.42
2019-04-22T07:31:20.597Z,3.98
2019-04-22T07:32:02.338Z,4.70
2019-04-22T07:32:59.099Z,5.00
2019-04-22T07:33:36.224Z,4.83
2019-04-22T07:33:58.395Z,6.53
2019-04-22T07:34:47.336Z,6.35
2019-04-22T07:35:08.353Z,8.35
2019-04-22T07:35:57.487Z,9.20
2019-04-22T07:37:13.066Z,10.93
2019-04-22T07:37:41.583Z,7.95
2019-04-22T07:38:25.537Z,8.25
2019-04-22T07:38:50.778Z,7.22
2019-04-22T07:39:37.970Z,8.78
2019-04-22T07:40:13.790Z,12.73
2019-04-22T07:41:28.687Z,13.22
2019-04-22T07:42:10.671Z,12.68
2019-04-22T07:42:45.184Z,9.35
2019-04-22T07:43:32.580Z,10.58
2019-04-22T07:44:45.199Z,8.28
2019-04-22T07:45:25.459Z,7.80
2019-04-22T07:45:49.360Z,7.50
2019-04-22T07:46:54.694Z,7.53
2019-04-22T07:47:13.892Z,6.87
2019-04-22T07:47:44.610Z,6.22
2019-04-22T07:48:58.048Z,4.58
2019-04-22T07:49:39.003Z,4.45
2019-04-22T07:50:32.692Z,4.22
2019-04-22T07:51:33.352Z,4.35
2019-04-22T07:52:09.965Z,3.83
2019-04-22T07:52:45.615Z,4.12
2019-04-22T07:53:21.675Z,4.92
2019-04-22T07:54:01.872Z,4.83
2019-04-22T07:54:43.401Z,4.62
2019-04-22T07:55:13.397Z,5.35
2019-04-22T07:55:52.228Z,5.03
2019-04-22T07:56:29.470Z,4.80
2019-04-22T07:57:16.486Z,4.33
2019-04-22T07:57:45.765Z,5.85
2019-04-22T07:58:24.186Z,5.10
2019-04-22T07:59:05.695Z,4.17
2019-04-22T07:59:40.559Z,4.30
2019-04-22T08:00:57.641Z,4.87
2019-04-22T08:01:30.487Z,5.40
2019-04-22T08:02:11.512Z,4.30
2019-04-22T08:02:51.664Z,4.17
2019-04-22T08:03:38.091Z,4.25
2019-04-22T08:04:54.293Z,5.87
2019-04-22T08:05:18.818Z,4.55
2019-04-22T08:06:05.386Z,4.37
2019-04-22T08:06:38.264Z,3.80
2019-04-22T08:07:14.539Z,4.35
2019-04-22T08:07:52.059Z,4.10
2019-04-22T08:09:10.685Z,4.10
2019-04-22T08:09:58.058Z,3.95
2019-04-22T08:11:30.192Z,3.85
2019-04-22T08:12:11.707Z,4.22
2019-04-22T08:12:51.821Z,4.10
2019-04-22T08:13:32.628Z,4.00
2019-04-22T08:14:07.500Z,4.03
2019-04-22T08:14:50.484Z,3.47
2019-04-22T08:15:19.953Z,3.80
2019-04-22T08:16:36.862Z,4.47
2019-04-22T08:17:43.466Z,4.62
2019-04-22T08:18:34.126Z,4.03
2019-04-22T08:19:16.975Z,3.80
2019-04-22T08:19:50.130Z,4.17
2019-04-22T08:21:39.255Z,3.70
2019-04-22T08:22:15.692Z,3.40
2019-04-22T08:23:00.661Z,4.53
2019-04-22T08:23:35.467Z,3.77
2019-04-22T08:24:14.618Z,3.92
2019-04-22T08:24:47.209Z,4.20
2019-04-22T08:25:26.823Z,4.20
2019-04-22T08:26:00.952Z,3.65
2019-04-22T08:26:46.810Z,4.70
2019-04-22T08:27:25.241Z,4.05
2019-04-22T08:28:05.709Z,4.15
2019-04-22T08:28:41.097Z,3.85
2019-04-22T08:29:21.648Z,4.22
2019-04-22T08:29:58.625Z,3.92
2019-04-22T08:30:33.861Z,4.42
2019-04-22T08:31:14.588Z,4.10
2019-04-22T08:31:57.516Z,4.00
2019-04-22T08:32:28.249Z,4.28
2019-04-22T08:33:09.656Z,4.35
2019-04-22T08:33:39.936Z,4.22
2019-04-22T08:34:20.860Z,4.53
2019-04-22T08:34:56.470Z,4.28
2019-04-22T08:35:52.426Z,4.55
2019-04-22T08:37:12.256Z,4.40
2019-04-22T08:38:09.955Z,4.80
2019-04-22T08:39:04.174Z,4.62
2019-04-22T08:39:25.234Z,5.15
2019-04-22T08:40:07.654Z,4.87
2019-04-22T08:40:43.214Z,4.62
2019-04-22T08:41:28.956Z,4.22
2019-04-22T08:41:52.039Z,4.58
2019-04-22T08:42:43.459Z,4.22
2019-04-22T08:43:57.477Z,4.55
2019-04-22T08:44:41.957Z,4.95
2019-04-22T08:45:09.260Z,4.40
2019-04-22T08:45:46.144Z,5.37
2019-04-22T08:47:04.627Z,4.00
2019-04-22T08:47:39.848Z,4.10
2019-04-22T08:48:16.434Z,3.92
2019-04-22T08:48:55.858Z,3.77
2019-04-22T08:49:39.126Z,4.05
2019-04-22T08:50:07.797Z,3.85
2019-04-22T08:50:44.624Z,3.83
2019-04-22T08:52:03.902Z,3.65
2019-04-22T08:52:42.203Z,3.98
2019-04-22T08:53:28.154Z,4.67
2019-04-22T08:55:14.272Z,4.37
2019-04-22T08:55:56.717Z,3.83
2019-04-22T08:57:06.775Z,4.55
2019-04-22T08:58:06.333Z,3.90
2019-04-22T08:58:34.285Z,3.83
2019-04-22T08:59:06.556Z,3.75
2019-04-22T08:59:28.318Z,3.77
2019-04-22T09:00:12.933Z,3.80
2019-04-22T09:01:02.281Z,3.60
2019-04-22T09:01:29.966Z,3.83
2019-04-22T09:02:06.278Z,3.87
2019-04-22T09:02:49.814Z,3.72
2019-04-22T09:03:20.740Z,4.20
2019-04-22T09:03:58.132Z,27.65
2019-04-22T09:04:34.687Z,4.58
2019-04-22T09:05:31.689Z,4.55
2019-04-22T09:06:47.942Z,3.35
2019-04-22T09:07:46.531Z,3.87
2019-04-22T09:08:29.598Z,3.50
2019-04-22T09:09:03.374Z,3.98
2019-04-22T09:09:42.914Z,3.40
2019-04-22T09:10:17.189Z,3.50
2019-04-22T09:10:57.121Z,3.80
2019-04-22T09:11:38.431Z,4.03
2019-04-22T09:12:07.647Z,4.37
2019-04-22T09:13:03.538Z,5.70
2019-04-22T09:13:26.293Z,3.42
2019-04-22T09:14:01.652Z,4.37
2019-04-22T09:14:43.471Z,3.70
2019-04-22T09:15:23.110Z,3.70
2019-04-22T09:15:58.857Z,3.55
2019-04-22T09:17:13.697Z,3.37
2019-04-22T09:18:32.960Z,3.70
2019-04-22T09:19:10.823Z,3.52
2019-04-22T09:19:44.096Z,3.40
2019-04-22T09:20:20.412Z,3.10
2019-04-22T09:21:08.499Z,3.50
2019-04-22T09:21:38.999Z,3.10
2019-04-22T09:22:17.553Z,3.35
2019-04-22T09:22:56.902Z,3.30
2019-04-22T09:24:10.538Z,3.65
2019-04-22T09:24:46.854Z,3.83
2019-04-22T09:25:27.438Z,4.20
2019-04-22T09:26:05.056Z,3.55
2019-04-22T09:26:44.975Z,3.75
2019-04-22T09:27:24.826Z,3.65
2019-04-22T09:27:55.998Z,3.52
2019-04-22T09:28:38.073Z,3.15
2019-04-22T09:29:53.639Z,3.33
2019-04-22T09:30:37.369Z,3.40
2019-04-22T09:31:06.489Z,3.87
2019-04-22T09:31:49.769Z,3.62
2019-04-22T09:32:19.137Z,3.62
2019-04-22T09:33:06.409Z,3.70
2019-04-22T09:34:13.782Z,3.58
2019-04-22T09:34:53.247Z,3.70
2019-04-22T09:35:32.650Z,3.62
2019-04-22T09:37:07.987Z,4.05
2019-04-22T09:37:28.642Z,3.92
2019-04-22T09:38:14.863Z,3.60
2019-04-22T09:38:43.654Z,3.92
2019-04-22T09:39:17.074Z,3.50
2019-04-22T09:40:02.774Z,3.72
2019-04-22T09:40:48.352Z,4.10
2019-04-22T09:41:13.982Z,3.65
2019-04-22T09:42:30.049Z,4.12
2019-04-22T09:43:05.025Z,4.53
2019-04-22T09:43:47.119Z,3.92
2019-04-22T09:44:29.817Z,3.75
2019-04-22T09:44:59.241Z,3.80
2019-04-22T09:45:35.565Z,4.45
2019-04-22T09:46:14.766Z,3.80
2019-04-22T09:46:51.953Z,4.50
2019-04-22T09:47:40.085Z,4.00
2019-04-22T09:48:18.138Z,5.83
2019-04-22T09:48:50.130Z,4.15
2019-04-22T09:50:24.229Z,4.47
2019-04-22T09:51:29.154Z,3.90
2019-04-22T09:52:02.935Z,3.90
2019-04-22T09:52:44.081Z,3.50
2019-04-22T09:53:18.267Z,4.45
2019-04-22T09:54:02.393Z,4.00
2019-04-22T09:54:36.766Z,4.10
2019-04-22T09:55:15.393Z,4.40
2019-04-22T09:55:50.015Z,4.15
2019-04-22T09:57:06.983Z,3.52
2019-04-22T09:57:38.134Z,3.62
2019-04-22T09:58:21.281Z,3.58
2019-04-22T09:58:55.667Z,4.10
2019-04-22T09:59:34.808Z,4.50
2019-04-22T10:01:19.032Z,5.05
2019-04-22T10:02:03.972Z,4.30
2019-04-22T10:02:34.454Z,3.83
2019-04-22T10:03:45.158Z,3.62
2019-04-22T10:04:10.005Z,3.65
2019-04-22T10:04:54.127Z,3.50
2019-04-22T10:05:32.627Z,3.95
2019-04-22T10:06:16.659Z,4.25
2019-04-22T10:06:45.545Z,3.85
2019-04-22T10:07:31.962Z,3.58